createdAt,value
2023-03-27T00:02:04.985Z,20.40
2023-03-27T00:04:31.569Z,20.40
2023-03-27T00:06:59.426Z,20.40
2023-03-27T00:09:28.411Z,20.40
2023-03-27T00:11:56.228Z,20.40
2023-03-27T00:14:23.929Z,20.40
2023-03-27T00:16:51.088Z,20.40
2023-03-27T00:19:18.900Z,20.30
2023-03-27T00:21:45.661Z,20.40
2023-03-27T00:24:12.239Z,20.40
2023-03-27T00:26:40.574Z,20.40
2023-03-27T00:29:07.950Z,20.40
2023-03-27T00:31:34.847Z,20.40
2023-03-27T00:34:01.821Z,20.40
2023-03-27T00:36:28.330Z,20.40
2023-03-27T00:38:54.900Z,20.40
2023-03-27T00:41:21.652Z,20.40
2023-03-27T00:43:49.360Z,20.50
2023-03-27T00:46:16.020Z,20.40
2023-03-27T00:48:43.613Z,20.40
2023-03-27T00:51:10.169Z,20.50
2023-03-27T00:53:37.119Z,20.40
2023-03-27T00:56:05.067Z,20.30
2023-03-27T00:58:40.709Z,20.40
2023-03-27T01:01:07.816Z,20.40
2023-03-27T01:03:34.518Z,20.30
2023-03-27T01:06:01.901Z,20.40
2023-03-27T01:08:29.805Z,20.20
2023-03-27T01:11:08.710Z,20.20
2023-03-27T01:13:56.709Z,20.40
2023-03-27T01:16:56.070Z,20.40
2023-03-27T01:19:41.787Z,20.40
2023-03-27T01:22:12.061Z,20.40
2023-03-27T01:25:00.211Z,20.40
2023-03-27T01:27:41.454Z,20.40
2023-03-27T01:30:10.805Z,20.40
2023-03-27T01:32:56.224Z,20.40
2023-03-27T01:35:28.985Z,20.60
2023-03-27T01:38:04.668Z,20.40
2023-03-27T01:40:39.503Z,20.40
2023-03-27T01:43:13.688Z,20.40
2023-03-27T01:45:46.306Z,20.40
2023-03-27T01:48:23.734Z,20.40
2023-03-27T01:50:55.439Z,20.40
2023-03-27T01:53:28.508Z,20.40
2023-03-27T01:56:05.754Z,20.40
2023-03-27T01:58:40.427Z,20.40
2023-03-27T02:01:08.762Z,20.40
2023-03-27T02:03:39.743Z,20.30
2023-03-27T02:06:08.657Z,20.30
2023-03-27T02:08:50.584Z,20.40
2023-03-27T02:11:17.563Z,21.70
2023-03-27T02:13:53.137Z,20.50
2023-03-27T02:16:23.012Z,20.40
2023-03-27T02:18:54.249Z,20.40
2023-03-27T02:21:23.467Z,20.80
2023-03-27T02:23:50.399Z,20.30
2023-03-27T02:26:17.002Z,20.40
2023-03-27T02:28:59.484Z,20.30
2023-03-27T02:31:36.321Z,20.40
2023-03-27T02:34:03.098Z,20.40
2023-03-27T02:37:08.125Z,20.50
2023-03-27T02:39:40.503Z,20.40
2023-03-27T02:42:09.976Z,20.40
2023-03-27T02:44:46.464Z,20.40
2023-03-27T02:47:17.020Z,20.30
2023-03-27T02:50:06.013Z,20.40
2023-03-27T02:52:36.098Z,20.40
2023-03-27T02:55:08.265Z,20.30
2023-03-27T02:57:38.693Z,20.40
2023-03-27T03:00:12.984Z,20.50
2023-03-27T03:02:39.926Z,20.40
2023-03-27T03:05:08.779Z,20.70
2023-03-27T03:07:38.139Z,20.40
2023-03-27T03:10:09.469Z,21.10
2023-03-27T03:12:36.293Z,20.80
2023-03-27T03:15:02.911Z,20.30
2023-03-27T03:17:29.462Z,20.40
2023-03-27T03:19:56.000Z,20.30
2023-03-27T03:22:22.517Z,20.50
2023-03-27T03:24:49.008Z,20.50
2023-03-27T03:27:15.603Z,20.40
2023-03-27T03:29:44.147Z,20.20
2023-03-27T03:32:10.725Z,20.20
2023-03-27T03:34:37.222Z,20.20
2023-03-27T03:37:03.733Z,20.40
2023-03-27T03:39:30.832Z,20.30
2023-03-27T03:41:57.323Z,20.40
2023-03-27T03:44:23.858Z,20.50
2023-03-27T03:46:50.583Z,20.40
2023-03-27T03:49:17.114Z,20.30
2023-03-27T03:51:43.718Z,20.20
2023-03-27T03:54:10.338Z,20.40
2023-03-27T03:56:41.367Z,20.30
2023-03-27T03:59:08.882Z,20.20
2023-03-27T04:01:35.470Z,20.40
2023-03-27T04:04:02.346Z,20.40
2023-03-27T04:06:31.022Z,20.30
2023-03-27T04:08:58.004Z,20.20
2023-03-27T04:11:24.491Z,20.30
2023-03-27T04:13:51.068Z,20.70
2023-03-27T04:16:17.622Z,20.30
2023-03-27T04:18:44.371Z,20.30
2023-03-27T04:21:17.573Z,20.20
2023-03-27T04:23:45.158Z,20.20
2023-03-27T04:26:12.254Z,20.40
2023-03-27T04:28:39.564Z,20.60
2023-03-27T04:31:06.928Z,20.20
2023-03-27T04:33:34.185Z,20.30
2023-03-27T04:36:06.441Z,20.20
2023-03-27T04:38:34.697Z,20.20
2023-03-27T04:41:01.937Z,20.30
2023-03-27T04:43:28.664Z,20.20
2023-03-27T04:45:55.360Z,20.20
2023-03-27T04:48:21.983Z,20.20
2023-03-27T04:50:49.374Z,20.40
2023-03-27T04:53:16.808Z,20.20
2023-03-27T04:55:44.162Z,20.20
2023-03-27T04:58:12.219Z,20.20
2023-03-27T05:00:39.316Z,20.20
2023-03-27T05:03:06.186Z,20.10
2023-03-27T05:05:33.166Z,20.60
2023-03-27T05:07:59.708Z,20.30
2023-03-27T05:10:26.237Z,20.10
2023-03-27T05:12:54.191Z,20.20
2023-03-27T05:15:21.973Z,20.00
2023-03-27T05:17:54.151Z,20.60
2023-03-27T05:20:22.050Z,20.30
2023-03-27T05:22:48.879Z,20.70
2023-03-27T05:25:15.682Z,20.10
2023-03-27T05:27:49.676Z,20.20
2023-03-27T05:30:17.450Z,20.20
2023-03-27T05:32:48.628Z,20.20
2023-03-27T05:35:16.359Z,20.30
2023-03-27T05:37:47.553Z,20.20
2023-03-27T05:40:17.639Z,20.20
2023-03-27T05:42:45.249Z,20.30
2023-03-27T05:45:12.959Z,20.60
2023-03-27T05:47:44.056Z,20.20
2023-03-27T05:50:10.905Z,20.40
2023-03-27T05:52:37.509Z,20.40
2023-03-27T05:55:04.823Z,20.10
2023-03-27T05:57:31.336Z,20.20
2023-03-27T05:59:57.969Z,20.00
2023-03-27T06:02:25.262Z,20.10
2023-03-27T06:04:52.228Z,20.10
2023-03-27T06:07:18.960Z,20.00
2023-03-27T06:09:45.663Z,20.00
2023-03-27T06:12:12.221Z,20.10
2023-03-27T06:14:38.831Z,20.00
2023-03-27T06:17:06.378Z,20.10
2023-03-27T06:19:32.905Z,20.00
2023-03-27T06:21:59.502Z,20.20
2023-03-27T06:24:26.475Z,19.90
2023-03-27T06:26:53.033Z,20.10
2023-03-27T06:29:19.550Z,19.10
2023-03-27T06:31:49.007Z,20.10
2023-03-27T06:34:15.569Z,20.00
2023-03-27T06:36:42.101Z,19.90
2023-03-27T06:39:08.829Z,20.00
2023-03-27T06:41:35.665Z,19.90
2023-03-27T06:44:02.240Z,19.90
2023-03-27T06:46:42.810Z,19.90
2023-03-27T06:49:11.550Z,19.90
2023-03-27T06:51:38.112Z,19.90
2023-03-27T06:54:04.727Z,19.90
2023-03-27T06:56:31.346Z,20.10
2023-03-27T06:58:57.944Z,20.10
2023-03-27T07:01:24.520Z,20.10
2023-03-27T07:03:51.031Z,20.00
2023-03-27T07:06:19.263Z,19.90
2023-03-27T07:08:47.776Z,20.40
2023-03-27T07:11:15.694Z,20.00
2023-03-27T07:13:42.463Z,20.20
2023-03-27T07:16:11.868Z,19.90
2023-03-27T07:18:38.576Z,20.10
2023-03-27T07:21:05.873Z,20.50
2023-03-27T07:23:32.405Z,20.10
2023-03-27T07:25:59.915Z,20.50
2023-03-27T07:28:26.767Z,19.90
2023-03-27T07:30:53.352Z,20.60
2023-03-27T07:33:19.994Z,19.90
2023-03-27T07:35:47.332Z,19.90
2023-03-27T07:38:14.667Z,20.30
2023-03-27T07:40:42.338Z,20.20
2023-03-27T07:43:08.970Z,19.90
2023-03-27T07:45:36.224Z,20.00
2023-03-27T07:48:10.233Z,20.30
2023-03-27T07:50:37.728Z,20.10
2023-03-27T07:53:06.733Z,20.30
2023-03-27T07:55:34.399Z,20.20
2023-03-27T07:58:03.345Z,19.90
2023-03-27T08:00:31.027Z,20.10
2023-03-27T08:03:05.859Z,19.90
2023-03-27T08:05:32.783Z,20.00
2023-03-27T08:07:59.567Z,19.90
2023-03-27T08:10:26.133Z,19.90
2023-03-27T08:12:52.644Z,19.90
2023-03-27T08:15:19.640Z,19.90
2023-03-27T08:17:46.825Z,19.90
2023-03-27T08:20:15.331Z,20.00
2023-03-27T08:22:41.944Z,20.10
2023-03-27T08:25:10.309Z,20.00
2023-03-27T08:27:36.999Z,20.10
2023-03-27T08:30:04.702Z,20.00
2023-03-27T08:32:31.671Z,20.10
2023-03-27T08:34:58.286Z,20.20
2023-03-27T08:37:24.892Z,20.20
2023-03-27T08:39:51.626Z,19.90
2023-03-27T08:42:21.757Z,20.80
2023-03-27T08:44:52.943Z,19.90
2023-03-27T08:47:23.800Z,20.10
2023-03-27T08:49:52.509Z,20.00
2023-03-27T08:52:22.028Z,20.00
2023-03-27T08:54:53.440Z,20.00
2023-03-27T08:57:21.387Z,20.40
2023-03-27T08:59:48.260Z,20.00
2023-03-27T09:02:24.818Z,20.20
2023-03-27T09:04:51.674Z,20.10
2023-03-27T09:07:27.267Z,19.90
2023-03-27T09:09:59.288Z,20.10
2023-03-27T09:12:31.858Z,20.10
2023-03-27T09:15:00.377Z,20.00
2023-03-27T09:17:32.231Z,20.20
2023-03-27T09:20:17.626Z,20.20
2023-03-27T09:22:45.766Z,20.10
2023-03-27T09:25:34.293Z,20.10
2023-03-27T09:28:01.581Z,20.10
2023-03-27T09:30:29.257Z,20.00
2023-03-27T09:32:58.121Z,20.40
2023-03-27T09:35:24.971Z,20.10
2023-03-27T09:37:56.545Z,20.20
2023-03-27T09:40:30.297Z,20.10
2023-03-27T09:43:00.633Z,20.30
2023-03-27T09:45:27.441Z,20.70
2023-03-27T09:47:57.952Z,20.40
2023-03-27T09:50:28.435Z,20.20
2023-03-27T09:53:08.426Z,20.20
2023-03-27T09:55:35.196Z,20.10
2023-03-27T09:58:15.623Z,20.30
2023-03-27T10:00:42.274Z,20.20
2023-03-27T10:03:18.864Z,20.10
2023-03-27T10:05:46.928Z,20.20
2023-03-27T10:08:40.739Z,20.50
2023-03-27T10:11:08.791Z,20.20
2023-03-27T10:13:35.324Z,20.10
2023-03-27T10:16:06.004Z,20.20
2023-03-27T10:18:42.122Z,20.20
2023-03-27T10:21:11.333Z,20.00
2023-03-27T10:23:40.961Z,20.10
2023-03-27T10:26:08.399Z,20.20
2023-03-27T10:28:36.088Z,20.10
2023-03-27T10:31:04.061Z,20.10
2023-03-27T10:33:30.548Z,20.20
2023-03-27T10:35:57.597Z,20.30
2023-03-27T10:38:25.016Z,20.30
2023-03-27T10:40:51.838Z,20.30
2023-03-27T10:43:33.613Z,20.10
2023-03-27T10:46:20.537Z,20.30
2023-03-27T10:48:54.387Z,20.60
2023-03-27T10:51:43.063Z,20.20
2023-03-27T10:54:16.726Z,20.10
2023-03-27T10:56:54.259Z,20.20
2023-03-27T11:02:25.820Z,20.30
2023-03-27T11:03:47.636Z,20.30
2023-03-27T11:04:56.057Z,20.30
2023-03-27T11:07:27.214Z,20.30
2023-03-27T11:09:56.807Z,20.20
2023-03-27T11:12:24.275Z,20.80
2023-03-27T11:14:53.884Z,20.30
2023-03-27T11:17:25.291Z,20.10
2023-03-27T11:20:07.096Z,20.30
2023-03-27T11:22:44.955Z,20.30
2023-03-27T11:25:20.845Z,20.30
2023-03-27T11:27:53.796Z,20.30
2023-03-27T11:30:26.613Z,20.30
2023-03-27T11:33:11.489Z,20.30
2023-03-27T11:35:41.320Z,20.30
2023-03-27T11:38:17.291Z,20.10
2023-03-27T11:40:48.381Z,20.20
2023-03-27T11:43:18.873Z,20.40
2023-03-27T11:45:50.976Z,20.30
2023-03-27T11:48:39.327Z,20.20
2023-03-27T11:51:24.774Z,20.20
2023-03-27T11:54:00.562Z,20.30
2023-03-27T11:56:50.082Z,20.30
2023-03-27T11:59:19.586Z,20.30
2023-03-27T12:01:55.845Z,20.40
2023-03-27T12:04:34.785Z,20.40
2023-03-27T12:07:05.186Z,20.40
2023-03-27T12:09:45.336Z,20.20
2023-03-27T12:12:30.426Z,20.40
2023-03-27T12:14:56.922Z,20.30
2023-03-27T12:17:37.024Z,20.20
2023-03-27T12:20:30.695Z,20.40
2023-03-27T12:22:57.191Z,20.40
2023-03-27T12:25:23.672Z,20.60
2023-03-27T12:28:08.863Z,20.30
2023-03-27T12:30:56.298Z,20.40
2023-03-27T12:33:32.211Z,20.30
2023-03-27T12:36:01.108Z,20.40
2023-03-27T12:38:29.780Z,20.30
2023-03-27T12:41:05.288Z,20.50
2023-03-27T12:43:33.752Z,20.40
2023-03-27T12:46:19.090Z,20.40
2023-03-27T12:48:48.061Z,20.20
2023-03-27T12:51:15.423Z,20.30
2023-03-27T12:53:41.917Z,20.30
2023-03-27T12:56:17.527Z,20.80
2023-03-27T12:58:45.045Z,20.20
2023-03-27T13:01:13.509Z,20.00
2023-03-27T13:03:51.551Z,20.20
2023-03-27T13:06:27.474Z,20.20
2023-03-27T13:09:13.603Z,20.10
2023-03-27T13:11:42.919Z,20.20
2023-03-27T13:14:12.926Z,20.30
2023-03-27T13:16:53.650Z,20.40
2023-03-27T13:19:23.023Z,20.40
2023-03-27T13:22:12.698Z,20.40
2023-03-27T13:24:42.325Z,20.50
2023-03-27T13:27:19.028Z,20.50
2023-03-27T13:29:49.877Z,20.50
2023-03-27T13:32:31.955Z,20.50
2023-03-27T13:35:17.227Z,20.50
2023-03-27T13:37:49.837Z,20.50
2023-03-27T13:40:24.400Z,20.50
2023-03-27T13:42:52.525Z,20.50
2023-03-27T13:45:20.624Z,20.30
2023-03-27T13:48:13.800Z,20.30
2023-03-27T13:50:46.359Z,20.50
2023-03-27T13:53:32.386Z,20.50
2023-03-27T13:56:17.353Z,20.50
2023-03-27T13:59:02.905Z,20.50
2023-03-27T14:01:35.956Z,20.50
2023-03-27T14:04:21.029Z,20.60
2023-03-27T14:07:07.736Z,20.50
2023-03-27T14:09:40.825Z,20.50
2023-03-27T14:12:18.135Z,20.50
2023-03-27T14:14:47.498Z,20.50
2023-03-27T14:17:17.097Z,20.50
2023-03-27T14:19:55.900Z,20.50
2023-03-27T14:22:26.258Z,20.50
2023-03-27T14:25:04.739Z,20.50
2023-03-27T14:27:32.616Z,20.50
2023-03-27T14:30:20.343Z,20.70
2023-03-27T14:32:48.898Z,20.50
2023-03-27T14:35:24.503Z,20.50
2023-03-27T14:37:55.841Z,20.50
2023-03-27T14:40:28.329Z,19.90
2023-03-27T14:42:56.348Z,19.10
2023-03-27T14:45:27.283Z,19.30
2023-03-27T14:48:00.022Z,19.60
2023-03-27T14:50:27.192Z,19.80
2023-03-27T14:52:54.373Z,20.10
2023-03-27T14:55:22.764Z,19.50
2023-03-27T14:57:50.416Z,20.10
2023-03-27T15:00:21.311Z,20.20
2023-03-27T15:02:49.065Z,20.20
2023-03-27T15:05:16.951Z,20.30
2023-03-27T15:07:44.965Z,20.30
2023-03-27T15:10:22.604Z,20.20
2023-03-27T15:12:49.532Z,20.30
2023-03-27T15:15:23.756Z,20.40
2023-03-27T15:17:54.721Z,20.40
2023-03-27T15:20:27.516Z,20.50
2023-03-27T15:22:59.962Z,20.50
2023-03-27T15:25:39.230Z,20.60
2023-03-27T15:28:10.377Z,20.50
2023-03-27T15:30:43.507Z,20.60
2023-03-27T15:33:17.301Z,20.50
2023-03-27T15:35:45.728Z,20.90
2023-03-27T15:38:14.044Z,20.20
2023-03-27T15:40:42.956Z,20.50
2023-03-27T15:43:12.637Z,20.50
2023-03-27T15:45:39.891Z,20.50
2023-03-27T15:48:17.309Z,20.80
2023-03-27T15:50:53.877Z,20.50
2023-03-27T15:53:29.838Z,20.60
2023-03-27T15:55:57.209Z,20.60
2023-03-27T15:58:25.506Z,20.90
2023-03-27T16:00:53.226Z,20.80
2023-03-27T16:03:24.838Z,20.90
2023-03-27T16:05:53.508Z,20.70
2023-03-27T16:08:28.218Z,20.60
2023-03-27T16:10:55.716Z,20.80
2023-03-27T16:13:27.501Z,21.10
2023-03-27T16:15:59.339Z,20.80
2023-03-27T16:18:29.926Z,20.80
2023-03-27T16:21:10.287Z,20.70
2023-03-27T16:23:37.316Z,20.70
2023-03-27T16:26:05.571Z,20.70
2023-03-27T16:28:32.401Z,20.70
2023-03-27T16:30:58.972Z,21.00
2023-03-27T16:33:27.464Z,21.00
2023-03-27T16:35:54.871Z,20.70
2023-03-27T16:38:21.600Z,20.90
2023-03-27T16:40:48.240Z,21.20
2023-03-27T16:43:15.012Z,20.80
2023-03-27T16:45:41.673Z,20.80
2023-03-27T16:48:08.605Z,20.90
2023-03-27T16:50:35.318Z,20.70
2023-03-27T16:53:02.006Z,20.70
2023-03-27T16:55:28.591Z,20.80
2023-03-27T16:57:55.703Z,20.80
2023-03-27T17:00:22.810Z,20.80
2023-03-27T17:02:49.431Z,20.80
2023-03-27T17:05:16.131Z,20.80
2023-03-27T17:07:43.952Z,20.80
2023-03-27T17:10:10.667Z,20.70
2023-03-27T17:12:37.322Z,20.80
2023-03-27T17:15:04.147Z,20.70
2023-03-27T17:17:30.899Z,20.80
2023-03-27T17:19:57.488Z,20.80
2023-03-27T17:22:26.254Z,20.70
2023-03-27T17:24:56.636Z,20.70
2023-03-27T17:27:25.677Z,20.80
2023-03-27T17:29:52.405Z,20.90
2023-03-27T17:32:18.978Z,20.90
2023-03-27T17:34:45.648Z,21.00
2023-03-27T17:37:12.540Z,20.80
2023-03-27T17:39:39.427Z,20.60
2023-03-27T17:42:06.594Z,20.80
2023-03-27T17:44:33.300Z,20.80
2023-03-27T17:47:00.613Z,20.70
2023-03-27T17:49:29.518Z,20.60
2023-03-27T17:51:56.131Z,20.80
2023-03-27T17:54:22.748Z,20.70
2023-03-27T17:56:49.689Z,20.50
2023-03-27T17:59:16.323Z,21.00
2023-03-27T18:01:44.578Z,20.80
2023-03-27T18:04:12.205Z,20.70
2023-03-27T18:06:38.809Z,20.70
2023-03-27T18:09:07.339Z,20.80
2023-03-27T18:11:33.917Z,19.30
2023-03-27T18:14:00.842Z,18.70
2023-03-27T18:16:27.476Z,19.30
2023-03-27T18:18:55.536Z,19.70
2023-03-27T18:21:22.423Z,20.00
2023-03-27T18:23:51.567Z,20.50
2023-03-27T18:26:20.300Z,20.20
2023-03-27T18:28:46.906Z,20.40
2023-03-27T18:31:13.749Z,20.80
2023-03-27T18:33:40.771Z,20.50
2023-03-27T18:36:10.654Z,20.40
2023-03-27T18:38:39.791Z,20.50
2023-03-27T18:41:06.868Z,20.50
2023-03-27T18:43:33.754Z,20.90
2023-03-27T18:46:01.936Z,20.60
2023-03-27T18:48:30.969Z,20.60
2023-03-27T18:50:58.681Z,20.60
2023-03-27T18:53:26.019Z,20.60
2023-03-27T18:55:53.260Z,20.70
2023-03-27T18:58:20.778Z,20.90
2023-03-27T19:00:47.583Z,20.80
2023-03-27T19:03:15.561Z,20.70
2023-03-27T19:05:42.266Z,20.70
2023-03-27T19:08:08.971Z,20.70
2023-03-27T19:10:35.869Z,20.70
2023-03-27T19:13:03.276Z,20.70
2023-03-27T19:15:30.790Z,20.70
2023-03-27T19:17:57.522Z,20.70
2023-03-27T19:20:25.657Z,20.70
2023-03-27T19:22:52.477Z,20.70
2023-03-27T19:25:19.249Z,20.70
2023-03-27T19:27:45.976Z,20.70
2023-03-27T19:30:13.533Z,21.00
2023-03-27T19:32:40.448Z,20.70
2023-03-27T19:35:07.194Z,21.30
2023-03-27T19:37:33.764Z,20.70
2023-03-27T19:40:00.342Z,20.90
2023-03-27T19:42:28.457Z,20.90
2023-03-27T19:44:55.288Z,20.90
2023-03-27T19:47:21.937Z,20.60
2023-03-27T19:49:48.553Z,21.00
2023-03-27T19:52:19.666Z,21.00
2023-03-27T19:54:46.555Z,20.90
2023-03-27T19:57:13.234Z,20.90
2023-03-27T19:59:39.829Z,21.20
2023-03-27T20:02:06.722Z,21.10
2023-03-27T20:04:33.276Z,20.90
2023-03-27T20:07:01.957Z,21.10
2023-03-27T20:09:28.829Z,20.80
2023-03-27T20:11:55.420Z,21.20
2023-03-27T20:14:22.055Z,20.90
2023-03-27T20:16:50.828Z,20.50
2023-03-27T20:19:17.483Z,20.20
2023-03-27T20:21:44.208Z,20.40
2023-03-27T20:24:12.066Z,20.30
2023-03-27T20:26:39.775Z,21.00
2023-03-27T20:29:06.961Z,20.80
2023-03-27T20:31:33.616Z,20.80
2023-03-27T20:34:00.356Z,20.60
2023-03-27T20:36:27.969Z,20.50
2023-03-27T20:38:56.386Z,21.20
2023-03-27T20:41:22.968Z,20.80
2023-03-27T20:43:50.882Z,21.00
2023-03-27T20:46:17.926Z,20.70
2023-03-27T20:48:54.071Z,21.20
2023-03-27T20:51:24.679Z,21.00
2023-03-27T20:53:55.570Z,21.30
2023-03-27T20:56:22.696Z,21.00
2023-03-27T20:58:49.196Z,20.80
2023-03-27T21:01:19.194Z,21.00
2023-03-27T21:03:49.342Z,21.00
2023-03-27T21:06:17.250Z,21.40
2023-03-27T21:08:44.058Z,21.00
2023-03-27T21:11:10.599Z,20.80
2023-03-27T21:13:37.167Z,21.50
2023-03-27T21:16:03.968Z,21.00
2023-03-27T21:18:30.929Z,20.40
2023-03-27T21:20:57.618Z,21.30
2023-03-27T21:23:24.215Z,21.20
2023-03-27T21:25:51.660Z,21.00
2023-03-27T21:28:18.303Z,21.00
2023-03-27T21:30:46.220Z,20.70
2023-03-27T21:33:15.900Z,21.10
2023-03-27T21:35:46.025Z,20.80
2023-03-27T21:38:13.715Z,20.70
2023-03-27T21:40:40.333Z,20.60
2023-03-27T21:43:08.267Z,20.60
2023-03-27T21:45:35.599Z,20.60
2023-03-27T21:48:02.144Z,20.60
2023-03-27T21:50:28.700Z,20.50
2023-03-27T21:52:55.640Z,21.20
2023-03-27T21:55:22.194Z,20.80
2023-03-27T21:57:48.754Z,20.50
2023-03-27T22:00:15.737Z,20.60
2023-03-27T22:02:42.720Z,20.60
2023-03-27T22:05:09.591Z,20.50
2023-03-27T22:07:36.536Z,20.60
2023-03-27T22:10:05.421Z,20.50
2023-03-27T22:12:34.579Z,20.60
2023-03-27T22:15:01.153Z,20.60
2023-03-27T22:17:27.813Z,20.30
2023-03-27T22:19:54.633Z,20.80
2023-03-27T22:22:21.343Z,20.60
2023-03-27T22:24:47.878Z,20.50
2023-03-27T22:27:14.407Z,20.60
2023-03-27T22:29:40.941Z,20.60
2023-03-27T22:32:07.517Z,20.50
2023-03-27T22:34:34.051Z,20.60
2023-03-27T22:37:01.651Z,20.60
2023-03-27T22:39:28.190Z,20.50
2023-03-27T22:41:54.677Z,20.70
2023-03-27T22:44:21.431Z,21.30
2023-03-27T22:46:48.018Z,20.50
2023-03-27T22:49:14.829Z,20.70
2023-03-27T22:51:41.306Z,20.50
2023-03-27T22:54:07.837Z,20.60
2023-03-27T22:56:34.427Z,20.60
2023-03-27T22:59:00.999Z,20.60
2023-03-27T23:01:27.519Z,20.60
2023-03-27T23:03:54.202Z,20.70
2023-03-27T23:06:22.167Z,20.50
2023-03-27T23:08:49.449Z,20.60
2023-03-27T23:11:16.252Z,20.50
2023-03-27T23:13:42.850Z,20.50
2023-03-27T23:16:09.622Z,20.50
2023-03-27T23:18:36.483Z,20.60
2023-03-27T23:21:04.309Z,20.50
2023-03-27T23:23:31.986Z,20.80
2023-03-27T23:25:58.936Z,20.60
2023-03-27T23:28:26.450Z,20.50
2023-03-27T23:30:53.744Z,20.50
2023-03-27T23:33:22.579Z,20.50
2023-03-27T23:35:49.338Z,20.60
2023-03-27T23:38:15.916Z,20.60
2023-03-27T23:40:42.438Z,20.50
2023-03-27T23:43:08.936Z,20.50
2023-03-27T23:45:35.570Z,20.50
2023-03-27T23:48:02.098Z,20.40
2023-03-27T23:50:28.648Z,20.50
2023-03-27T23:52:55.186Z,20.50
2023-03-27T23:55:21.681Z,20.50
2023-03-27T23:57:48.213Z,20.50
